Penntown, Indiana
Current Conditions -  °F | °C
As of 2:15 PM on Sunday 21 Dec 2014 (Local Time) from KI67 Reporting Station
Clear Clear  
Wind Chill: 32°   Ceiling: Unl
Heat Index: 37°   Visibility: 10mi
Dew Point: 27°   Wind: 7mph
Humidity: 65%   Direction: 120°ESE
Pressure: 30.21"   Gusts: NA
Location:  39.2635°N, 85.1027°W
Report Text: KI67 211915Z AUTO 12006KT 10SM CLR 03/M03 A3021 RMK AO1
Loading
Personal Weather Stations






























Interactive Weather Map New forecast layout! Learn more

10-Day Weather Forecast

Advertisements
Track Severe Weather on mobile